createdAt,value
2019-01-15T00:00:21.353Z,2.73
2019-01-15T00:02:51.781Z,3.20
2019-01-15T00:05:21.965Z,2.63
2019-01-15T00:07:54.101Z,3.20
2019-01-15T00:10:33.724Z,2.60
2019-01-15T00:13:07.462Z,2.93
2019-01-15T00:15:37.600Z,3.20
2019-01-15T00:18:07.712Z,2.37
2019-01-15T00:20:37.794Z,2.80
2019-01-15T00:23:08.030Z,3.20
2019-01-15T00:25:38.153Z,3.07
2019-01-15T00:28:13.782Z,2.77
2019-01-15T00:30:43.926Z,3.03
2019-01-15T00:33:15.903Z,2.47
2019-01-15T00:35:46.034Z,3.00
2019-01-15T00:38:16.040Z,3.10
2019-01-15T00:40:46.160Z,2.70
2019-01-15T00:43:16.400Z,4.13
2019-01-15T00:45:51.047Z,2.70
2019-01-15T00:48:21.109Z,2.67
2019-01-15T00:50:51.048Z,3.67
2019-01-15T00:53:21.206Z,2.83
2019-01-15T00:55:51.954Z,3.00
2019-01-15T00:58:22.145Z,3.50
2019-01-15T01:00:52.335Z,3.13
2019-01-15T01:03:22.490Z,2.50
2019-01-15T01:05:52.573Z,2.50
2019-01-15T01:08:22.727Z,3.10
2019-01-15T01:10:52.741Z,3.33
2019-01-15T01:13:22.694Z,3.07
2019-01-15T01:15:57.176Z,3.10
2019-01-15T01:18:27.746Z,2.50
2019-01-15T01:20:57.831Z,3.40
2019-01-15T01:23:32.416Z,2.00
2019-01-15T01:26:03.706Z,3.57
2019-01-15T01:28:33.967Z,3.90
2019-01-15T01:31:04.285Z,2.73
2019-01-15T01:33:34.431Z,3.17
2019-01-15T01:36:04.718Z,3.30
2019-01-15T01:38:40.727Z,2.60
2019-01-15T01:41:15.414Z,2.80
2019-01-15T01:43:47.733Z,2.20
2019-01-15T01:46:17.691Z,1.90
2019-01-15T01:48:47.804Z,3.20
2019-01-15T01:51:19.673Z,3.20
2019-01-15T01:53:49.799Z,2.70
2019-01-15T01:56:19.818Z,2.90
2019-01-15T01:58:49.918Z,3.40
2019-01-15T02:01:21.201Z,4.00
2019-01-15T02:03:53.615Z,2.83
2019-01-15T02:06:24.921Z,3.03
2019-01-15T02:08:55.002Z,3.40
2019-01-15T02:11:25.214Z,2.80
2019-01-15T02:13:55.181Z,3.17
2019-01-15T02:16:25.426Z,3.90
2019-01-15T02:18:55.910Z,3.03
2019-01-15T02:21:25.934Z,2.30
2019-01-15T02:23:57.919Z,2.60
2019-01-15T02:26:29.235Z,2.97
2019-01-15T02:28:59.602Z,2.60
2019-01-15T02:31:29.592Z,3.50
2019-01-15T02:33:59.654Z,2.40
2019-01-15T02:36:29.814Z,3.60
2019-01-15T02:39:00.347Z,2.07
2019-01-15T02:41:30.505Z,2.70
2019-01-15T02:44:00.690Z,2.67
2019-01-15T02:46:31.006Z,2.57
2019-01-15T02:49:01.102Z,2.37
2019-01-15T02:51:31.089Z,2.50
2019-01-15T02:54:01.234Z,2.93
2019-01-15T02:56:34.086Z,2.73
2019-01-15T02:59:05.908Z,2.30
2019-01-15T03:01:36.069Z,2.80
2019-01-15T03:04:09.307Z,2.77
2019-01-15T03:06:39.261Z,3.07
2019-01-15T03:09:11.614Z,2.67
2019-01-15T03:11:41.679Z,2.00
2019-01-15T03:14:11.927Z,2.93
2019-01-15T03:16:43.425Z,2.40
2019-01-15T03:19:15.244Z,2.60
2019-01-15T03:21:45.293Z,2.23
2019-01-15T03:24:20.353Z,1.80
2019-01-15T03:26:52.316Z,2.97
2019-01-15T03:29:25.895Z,2.30
2019-01-15T03:31:56.349Z,2.30
2019-01-15T03:34:28.463Z,2.27
2019-01-15T03:36:58.699Z,2.10
2019-01-15T03:39:29.580Z,2.30
2019-01-15T03:41:59.720Z,2.30
2019-01-15T03:44:30.460Z,2.17
2019-01-15T03:47:00.745Z,4.20
2019-01-15T03:49:30.932Z,2.50
2019-01-15T03:52:01.146Z,2.10
2019-01-15T03:54:31.396Z,1.77
2019-01-15T03:57:01.608Z,2.43
2019-01-15T03:59:31.725Z,3.40
2019-01-15T04:02:01.847Z,1.70
2019-01-15T04:04:31.958Z,2.03
2019-01-15T04:07:02.061Z,2.13
2019-01-15T04:09:32.231Z,1.70
2019-01-15T04:12:02.693Z,2.73
2019-01-15T04:14:35.862Z,1.90
2019-01-15T04:17:05.950Z,1.77
2019-01-15T04:19:41.714Z,2.80
2019-01-15T04:22:11.694Z,2.90
2019-01-15T04:24:41.874Z,1.20
2019-01-15T04:27:12.064Z,1.83
2019-01-15T04:29:42.325Z,2.40
2019-01-15T04:32:12.570Z,1.87
2019-01-15T04:34:42.577Z,2.40
2019-01-15T04:37:12.650Z,1.80
2019-01-15T04:39:42.736Z,1.93
2019-01-15T04:42:12.718Z,1.80
2019-01-15T04:44:43.013Z,1.90
2019-01-15T04:47:13.075Z,1.80
2019-01-15T04:49:43.123Z,1.40
2019-01-15T04:52:13.210Z,1.20
2019-01-15T04:54:43.294Z,2.00
2019-01-15T04:57:14.737Z,1.83
2019-01-15T04:59:45.122Z,2.43
2019-01-15T05:02:15.338Z,2.40
2019-01-15T05:04:45.507Z,2.53
2019-01-15T05:07:15.819Z,2.20
2019-01-15T05:09:46.028Z,2.03
2019-01-15T05:12:16.197Z,2.17
2019-01-15T05:14:46.263Z,1.90
2019-01-15T05:17:16.478Z,2.10
2019-01-15T05:19:46.494Z,2.00
2019-01-15T05:22:19.526Z,2.43
2019-01-15T05:24:49.565Z,1.20
2019-01-15T05:27:19.669Z,3.47
2019-01-15T05:29:49.815Z,1.40
2019-01-15T05:32:20.039Z,1.47
2019-01-15T05:34:50.156Z,1.50
2019-01-15T05:37:20.250Z,1.77
2019-01-15T05:39:51.429Z,1.73
2019-01-15T05:42:21.564Z,1.83
2019-01-15T05:44:53.527Z,1.50
2019-01-15T05:47:25.389Z,1.60
2019-01-15T05:49:57.522Z,1.93
2019-01-15T05:52:27.926Z,1.10
2019-01-15T05:54:58.060Z,2.10
2019-01-15T05:57:28.345Z,2.17
2019-01-15T05:59:58.364Z,1.07
2019-01-15T06:02:28.448Z,1.53
2019-01-15T06:05:00.362Z,1.93
2019-01-15T06:07:33.792Z,1.50
2019-01-15T06:10:02.603Z,1.90
2019-01-15T06:12:35.543Z,1.77
2019-01-15T06:15:07.243Z,1.50
2019-01-15T06:17:37.591Z,1.90
2019-01-15T06:20:09.941Z,1.67
2019-01-15T06:22:40.058Z,3.70
2019-01-15T06:25:10.368Z,2.00
2019-01-15T06:27:48.247Z,1.30
2019-01-15T06:30:18.594Z,1.90
2019-01-15T06:32:48.779Z,1.77
2019-01-15T06:35:22.759Z,2.07
2019-01-15T06:37:56.562Z,1.80
2019-01-15T06:40:28.707Z,2.50
2019-01-15T06:42:58.490Z,2.60
2019-01-15T06:45:28.902Z,1.63
2019-01-15T06:47:59.066Z,2.47
2019-01-15T06:50:31.023Z,1.90
2019-01-15T06:53:01.261Z,2.30
2019-01-15T06:55:31.621Z,2.43
2019-01-15T06:58:01.844Z,2.87
2019-01-15T07:00:32.276Z,2.97
2019-01-15T07:03:06.405Z,1.90
2019-01-15T07:05:41.449Z,2.03
2019-01-15T07:08:13.166Z,1.93
2019-01-15T07:11:01.696Z,2.43
2019-01-15T07:13:28.433Z,2.40
2019-01-15T07:15:59.811Z,2.40
2019-01-15T07:18:31.597Z,2.80
2019-01-15T07:21:01.608Z,2.83
2019-01-15T07:23:56.353Z,2.40
2019-01-15T07:26:29.415Z,2.33
2019-01-15T07:28:59.777Z,3.20
2019-01-15T07:31:30.271Z,3.00
2019-01-15T07:34:00.432Z,2.63
2019-01-15T07:36:33.969Z,2.20
2019-01-15T07:39:08.179Z,3.20
2019-01-15T07:41:38.090Z,2.73
2019-01-15T07:44:14.096Z,3.60
2019-01-15T07:46:47.254Z,2.90
2019-01-15T07:49:17.337Z,3.37
2019-01-15T07:51:47.520Z,3.23
2019-01-15T07:54:17.647Z,3.00
2019-01-15T07:56:49.951Z,4.47
2019-01-15T07:59:20.106Z,3.70
2019-01-15T08:01:50.844Z,3.30
2019-01-15T08:04:21.135Z,3.63
2019-01-15T08:06:51.420Z,3.03
2019-01-15T08:09:21.997Z,3.50
2019-01-15T08:11:52.144Z,2.80
2019-01-15T08:14:24.630Z,3.13
2019-01-15T08:16:54.770Z,3.80
2019-01-15T08:19:25.010Z,3.60
2019-01-15T08:21:55.272Z,3.10
2019-01-15T08:24:25.377Z,3.00
2019-01-15T08:27:07.048Z,2.90
2019-01-15T08:29:37.572Z,4.03
2019-01-15T08:32:09.344Z,3.20
2019-01-15T08:34:39.614Z,4.03
2019-01-15T08:37:09.903Z,3.90
2019-01-15T08:39:40.062Z,4.93
2019-01-15T08:42:10.330Z,4.00
2019-01-15T08:44:40.720Z,4.47
2019-01-15T08:47:10.958Z,4.83
2019-01-15T08:49:41.428Z,4.30
2019-01-15T08:52:11.554Z,4.07
2019-01-15T08:54:41.701Z,4.33
2019-01-15T08:57:11.701Z,4.73
2019-01-15T08:59:42.256Z,5.00
2019-01-15T09:02:14.391Z,4.83
2019-01-15T09:04:44.433Z,4.93
2019-01-15T09:07:14.619Z,4.87
2019-01-15T09:09:47.149Z,5.10
2019-01-15T09:12:17.490Z,5.87
2019-01-15T09:14:47.475Z,5.70
2019-01-15T09:17:17.662Z,5.87
2019-01-15T09:19:48.055Z,6.20
2019-01-15T09:22:20.270Z,4.90
2019-01-15T09:24:50.328Z,5.47
2019-01-15T09:27:28.816Z,5.50
2019-01-15T09:29:59.105Z,5.93
2019-01-15T09:32:29.636Z,6.10
2019-01-15T09:34:59.820Z,5.83
2019-01-15T09:37:30.238Z,5.90
2019-01-15T09:40:00.280Z,5.60
2019-01-15T09:42:36.524Z,5.73
2019-01-15T09:45:13.051Z,5.60
2019-01-15T09:47:50.898Z,6.83
2019-01-15T09:50:21.561Z,6.70
2019-01-15T09:52:51.898Z,7.27
2019-01-15T09:55:24.375Z,6.73
2019-01-15T09:57:54.431Z,7.70
2019-01-15T10:00:24.622Z,7.33
2019-01-15T10:02:55.073Z,6.87
2019-01-15T10:05:25.197Z,7.03
2019-01-15T10:07:55.475Z,8.47
2019-01-15T10:10:27.015Z,7.97
2019-01-15T10:12:56.997Z,7.23
2019-01-15T10:15:27.503Z,8.40
2019-01-15T10:17:59.141Z,8.70
2019-01-15T10:20:29.311Z,8.03
2019-01-15T10:23:05.318Z,7.33
2019-01-15T10:25:36.084Z,9.20
2019-01-15T10:28:07.246Z,9.87
2019-01-15T10:30:54.336Z,9.53
2019-01-15T10:33:42.595Z,7.37
2019-01-15T10:36:11.561Z,11.30
2019-01-15T10:38:46.349Z,8.10
2019-01-15T10:41:16.960Z,8.87
2019-01-15T10:43:47.187Z,8.97
2019-01-15T10:46:19.641Z,8.83
2019-01-15T10:48:49.700Z,10.10
2019-01-15T10:51:19.799Z,9.20
2019-01-15T10:54:00.291Z,9.83
2019-01-15T10:56:30.314Z,10.50
2019-01-15T10:59:00.573Z,9.83
2019-01-15T11:01:30.801Z,10.63
2019-01-15T11:04:00.957Z,9.90
2019-01-15T11:06:31.265Z,10.90
2019-01-15T11:09:01.503Z,8.60
2019-01-15T11:11:31.744Z,10.80
2019-01-15T11:14:01.908Z,9.77
2019-01-15T11:16:31.887Z,9.90
2019-01-15T11:19:01.911Z,8.87
2019-01-15T11:21:32.072Z,11.33
2019-01-15T11:24:04.725Z,8.73
2019-01-15T11:26:34.863Z,7.67
2019-01-15T11:29:05.004Z,9.40
2019-01-15T11:31:35.306Z,7.27
2019-01-15T11:34:05.477Z,7.87
2019-01-15T11:36:35.525Z,7.90
2019-01-15T11:39:11.189Z,7.63
2019-01-15T11:41:41.401Z,7.80
2019-01-15T11:44:11.870Z,7.67
2019-01-15T11:46:45.155Z,7.57
2019-01-15T11:49:17.923Z,8.40
2019-01-15T11:51:48.152Z,7.77
2019-01-15T11:54:18.532Z,7.47
2019-01-15T11:56:48.912Z,6.70
2019-01-15T11:59:19.687Z,5.90
2019-01-15T12:02:00.347Z,8.77
2019-01-15T12:04:46.975Z,5.67
2019-01-15T12:07:37.597Z,6.73
2019-01-15T12:10:29.717Z,6.30
2019-01-15T12:13:13.978Z,6.33
2019-01-15T12:16:18.663Z,6.20
2019-01-15T12:19:17.003Z,5.23
2019-01-15T12:21:57.228Z,6.60
2019-01-15T12:24:49.191Z,5.83
2019-01-15T12:27:30.909Z,6.30
2019-01-15T12:30:25.324Z,5.40
2019-01-15T12:33:25.753Z,5.20
2019-01-15T12:36:14.855Z,6.13
2019-01-15T12:39:04.114Z,5.80
2019-01-15T12:41:53.602Z,5.70
2019-01-15T12:44:50.551Z,5.90
2019-01-15T12:47:59.736Z,5.93
2019-01-15T12:50:52.066Z,5.53
2019-01-15T12:53:39.786Z,6.17
2019-01-15T12:56:34.911Z,5.93
2019-01-15T12:59:18.655Z,6.63
2019-01-15T13:02:11.342Z,5.37
2019-01-15T13:05:03.393Z,4.40
2019-01-15T13:07:55.517Z,6.13
2019-01-15T13:10:47.569Z,5.60
2019-01-15T13:13:39.009Z,5.40
2019-01-15T13:16:26.941Z,5.30
2019-01-15T13:19:16.748Z,6.27
2019-01-15T13:21:57.429Z,6.03
2019-01-15T13:24:58.734Z,5.60
2019-01-15T13:27:46.406Z,6.10
2019-01-15T13:30:35.740Z,5.23
2019-01-15T13:33:36.902Z,5.50
2019-01-15T13:36:35.350Z,5.57
2019-01-15T13:39:20.387Z,5.20
2019-01-15T13:42:08.054Z,6.13
2019-01-15T13:44:56.124Z,5.30
2019-01-15T13:47:44.241Z,5.17
2019-01-15T13:50:33.110Z,4.70
2019-01-15T13:53:31.594Z,4.30
2019-01-15T13:56:27.107Z,4.60
2019-01-15T13:59:11.412Z,4.70
2019-01-15T14:02:06.511Z,5.40
2019-01-15T14:08:05.034Z,5.57
2019-01-15T14:10:56.956Z,4.17
2019-01-15T14:13:46.242Z,3.80
2019-01-15T14:16:33.896Z,4.10
2019-01-15T14:19:41.448Z,4.30
2019-01-15T14:22:33.450Z,4.20
2019-01-15T14:25:30.105Z,6.37
2019-01-15T14:28:13.052Z,4.90
2019-01-15T14:31:02.145Z,4.30
2019-01-15T14:34:00.586Z,3.60
2019-01-15T14:36:49.697Z,3.90
2019-01-15T14:39:39.749Z,3.70
2019-01-15T14:42:23.687Z,3.43
2019-01-15T14:45:21.609Z,4.80
2019-01-15T14:48:10.841Z,3.80
2019-01-15T14:51:14.354Z,3.90
2019-01-15T14:54:00.911Z,3.33
2019-01-15T14:56:49.919Z,4.43
2019-01-15T14:59:37.722Z,2.87
2019-01-15T15:02:25.646Z,3.40
2019-01-15T15:05:13.566Z,4.67
2019-01-15T15:08:10.059Z,4.60
2019-01-15T15:10:46.986Z,4.20
2019-01-15T15:13:34.541Z,4.07
2019-01-15T15:16:29.782Z,4.10
2019-01-15T15:19:17.553Z,3.73
2019-01-15T15:22:01.654Z,3.63
2019-01-15T15:24:51.068Z,4.30
2019-01-15T15:27:43.514Z,3.70
2019-01-15T15:30:38.903Z,3.73
2019-01-15T15:33:26.663Z,3.20
2019-01-15T15:36:16.196Z,3.83
2019-01-15T15:39:03.769Z,3.43
2019-01-15T15:41:50.377Z,3.83
2019-01-15T15:44:31.276Z,3.33
2019-01-15T15:47:23.812Z,4.37
2019-01-15T15:50:11.933Z,3.47
2019-01-15T15:52:59.559Z,3.53
2019-01-15T15:55:48.675Z,2.90
2019-01-15T15:58:33.195Z,3.17
2019-01-15T16:01:13.326Z,3.40
2019-01-15T16:04:04.697Z,4.30
2019-01-15T16:06:52.720Z,3.37
2019-01-15T16:09:52.390Z,3.03
2019-01-15T16:12:41.321Z,3.07
2019-01-15T16:15:48.522Z,3.00
2019-01-15T16:18:35.900Z,3.80
2019-01-15T16:21:16.085Z,4.00
2019-01-15T16:24:13.534Z,3.97
2019-01-15T16:27:05.585Z,2.70
2019-01-15T16:29:56.234Z,2.70
2019-01-15T16:32:41.143Z,2.43
2019-01-15T16:35:25.019Z,2.60
2019-01-15T16:38:13.008Z,3.83
2019-01-15T16:41:11.370Z,5.57
2019-01-15T16:43:59.504Z,2.90
2019-01-15T16:46:49.436Z,3.20
2019-01-15T16:49:33.255Z,3.43
2019-01-15T16:52:28.733Z,3.47
2019-01-15T16:55:10.375Z,4.00
2019-01-15T16:58:11.094Z,8.53
2019-01-15T17:00:56.758Z,4.23
2019-01-15T17:03:54.300Z,5.07
2019-01-15T17:06:46.347Z,4.50
2019-01-15T17:09:34.964Z,4.30
2019-01-15T17:12:36.196Z,3.30
2019-01-15T17:15:33.080Z,4.77
2019-01-15T17:18:40.458Z,6.37
2019-01-15T17:21:44.900Z,4.67
2019-01-15T17:24:37.310Z,3.70
2019-01-15T17:27:17.437Z,3.80
2019-01-15T17:30:05.094Z,4.07
2019-01-15T17:32:49.032Z,4.83
2019-01-15T17:35:40.097Z,5.33
2019-01-15T17:38:40.035Z,6.00
2019-01-15T17:41:19.465Z,5.07
2019-01-15T17:44:08.628Z,3.73
2019-01-15T17:47:02.265Z,4.50
2019-01-15T17:49:52.596Z,4.60
2019-01-15T17:52:57.102Z,4.30
2019-01-15T17:55:36.039Z,4.93
2019-01-15T17:58:30.969Z,4.60
2019-01-15T18:01:22.999Z,4.13
2019-01-15T18:04:12.289Z,4.57
2019-01-15T18:07:10.583Z,5.17
2019-01-15T18:10:27.658Z,5.73
2019-01-15T18:13:31.542Z,5.60
2019-01-15T18:16:34.095Z,5.60
2019-01-15T18:19:22.987Z,7.30
2019-01-15T18:22:12.025Z,7.40
2019-01-15T18:25:00.999Z,6.97
2019-01-15T18:27:49.912Z,6.90
2019-01-15T18:30:45.005Z,8.97
2019-01-15T18:33:49.073Z,7.10
2019-01-15T18:36:41.632Z,7.83
2019-01-15T18:39:36.782Z,7.43
2019-01-15T18:42:16.293Z,6.50
2019-01-15T18:45:10.276Z,7.63
2019-01-15T18:48:08.320Z,6.50
2019-01-15T18:50:56.477Z,7.07
2019-01-15T18:53:40.107Z,6.63
2019-01-15T18:56:32.237Z,7.17
2019-01-15T18:59:24.537Z,7.60
2019-01-15T19:02:26.427Z,7.00
2019-01-15T19:05:20.559Z,7.87
2019-01-15T19:08:11.595Z,7.00
2019-01-15T19:11:07.619Z,6.47
2019-01-15T19:13:54.972Z,6.70
2019-01-15T19:16:39.463Z,6.70
2019-01-15T19:19:18.262Z,5.97
2019-01-15T19:22:22.911Z,6.97
2019-01-15T19:25:06.501Z,6.57
2019-01-15T19:27:45.556Z,4.70
2019-01-15T19:30:34.110Z,5.00
2019-01-15T19:33:29.515Z,7.30
2019-01-15T19:36:36.761Z,6.37
2019-01-15T19:39:21.169Z,5.77
2019-01-15T19:42:09.214Z,6.20
2019-01-15T19:45:13.701Z,5.47
2019-01-15T19:48:09.817Z,6.60
2019-01-15T19:50:50.364Z,6.83
2019-01-15T19:53:33.032Z,5.43
2019-01-15T19:56:25.849Z,4.90
2019-01-15T19:59:07.052Z,5.40
2019-01-15T20:02:05.161Z,5.57
2019-01-15T20:04:53.819Z,5.40
2019-01-15T20:07:48.394Z,5.40
2019-01-15T20:10:35.702Z,5.40
2019-01-15T20:13:26.207Z,5.40
2019-01-15T20:16:14.409Z,4.90
2019-01-15T20:19:02.206Z,5.60
2019-01-15T20:21:57.337Z,5.13
2019-01-15T20:24:55.486Z,5.67
2019-01-15T20:27:47.744Z,4.53
2019-01-15T20:30:43.329Z,4.50
2019-01-15T20:33:31.319Z,5.13
2019-01-15T20:36:11.435Z,4.80
2019-01-15T20:39:00.645Z,4.57
2019-01-15T20:41:43.641Z,3.43
2019-01-15T20:44:31.853Z,3.67
2019-01-15T20:47:25.315Z,3.60
2019-01-15T20:50:14.969Z,4.60
2019-01-15T20:53:16.411Z,3.33
2019-01-15T20:55:59.378Z,3.03
2019-01-15T20:58:47.209Z,3.70
2019-01-15T21:01:54.751Z,3.60
2019-01-15T21:04:43.994Z,3.57
2019-01-15T21:07:31.740Z,3.30
2019-01-15T21:10:23.997Z,3.97
2019-01-15T21:13:11.649Z,2.50
2019-01-15T21:15:53.441Z,2.80
2019-01-15T21:18:42.626Z,3.47
2019-01-15T21:21:34.605Z,3.60
2019-01-15T21:24:22.017Z,4.23
2019-01-15T21:27:03.274Z,3.00
2019-01-15T21:29:53.565Z,3.50
2019-01-15T21:32:54.437Z,3.90
2019-01-15T21:35:42.268Z,3.73
2019-01-15T21:38:34.168Z,4.53
2019-01-15T21:41:22.076Z,4.80
2019-01-15T21:44:08.944Z,4.93
2019-01-15T21:46:56.022Z,5.80
2019-01-15T21:49:46.372Z,6.13
2019-01-15T21:52:47.776Z,6.70
2019-01-15T21:55:31.928Z,7.40
2019-01-15T21:58:21.672Z,8.50
2019-01-15T22:01:20.193Z,7.43
2019-01-15T22:04:08.053Z,8.57
2019-01-15T22:07:04.566Z,9.00
2019-01-15T22:09:56.776Z,8.70
2019-01-15T22:12:39.245Z,8.90
2019-01-15T22:15:33.957Z,9.67
2019-01-15T22:18:35.087Z,11.70
2019-01-15T22:21:33.509Z,9.60
2019-01-15T22:24:32.213Z,8.50
2019-01-15T22:27:29.240Z,8.50
2019-01-15T22:30:07.306Z,9.47
2019-01-15T22:33:12.603Z,8.10
2019-01-15T22:36:02.714Z,10.00
2019-01-15T22:38:57.650Z,10.13
2019-01-15T22:41:40.201Z,9.00
2019-01-15T22:44:48.015Z,10.00
2019-01-15T22:47:39.856Z,10.03
2019-01-15T22:50:44.189Z,8.93
2019-01-15T22:53:24.886Z,10.33
2019-01-15T22:56:18.389Z,10.10
2019-01-15T22:59:07.708Z,9.53
2019-01-15T23:01:49.205Z,10.97
2019-01-15T23:04:34.349Z,9.60
2019-01-15T23:07:26.370Z,9.70
2019-01-15T23:10:21.938Z,11.30
2019-01-15T23:13:10.239Z,10.57
2019-01-15T23:16:08.147Z,9.33
2019-01-15T23:18:52.986Z,10.07
2019-01-15T23:21:37.081Z,10.97
2019-01-15T23:27:25.198Z,10.67
2019-01-15T23:30:29.461Z,11.30
2019-01-15T23:33:11.042Z,10.40
2019-01-15T23:35:59.150Z,11.07
2019-01-15T23:39:06.290Z,10.83
2019-01-15T23:42:12.529Z,11.10
2019-01-15T23:44:56.606Z,12.97
2019-01-15T23:47:38.430Z,11.13
2019-01-15T23:50:22.314Z,11.80
2019-01-15T23:53:10.105Z,11.23
2019-01-15T23:55:59.140Z,12.47
2019-01-15T23:59:00.825Z,12.53
